createdAt,value
2018-07-10T00:02:35.108Z,21.66
2018-07-10T00:06:43.796Z,21.50
2018-07-10T00:10:24.236Z,21.54
2018-07-10T00:12:53.204Z,21.49
2018-07-10T00:15:21.999Z,21.49
2018-07-10T00:17:50.536Z,21.52
2018-07-10T00:20:19.473Z,21.54
2018-07-10T00:22:48.945Z,21.58
2018-07-10T00:25:18.318Z,21.56
2018-07-10T00:27:47.139Z,21.60
2018-07-10T00:30:16.004Z,21.51
2018-07-10T00:32:44.591Z,21.46
2018-07-10T00:35:13.432Z,21.45
2018-07-10T00:37:51.921Z,21.46
2018-07-10T00:40:20.827Z,21.44
2018-07-10T00:42:49.793Z,21.45
2018-07-10T00:45:18.611Z,21.43
2018-07-10T00:47:47.908Z,21.43
2018-07-10T00:50:17.588Z,21.38
2018-07-10T00:52:46.230Z,21.34
2018-07-10T00:55:14.998Z,21.39
2018-07-10T00:57:43.646Z,21.42
2018-07-10T01:00:18.841Z,21.39
2018-07-10T01:02:47.888Z,21.35
2018-07-10T01:05:16.516Z,21.34
2018-07-10T01:07:45.220Z,21.38
2018-07-10T01:10:14.134Z,21.37
2018-07-10T01:12:42.765Z,21.37
2018-07-10T01:15:11.432Z,21.34
2018-07-10T01:17:40.111Z,21.31
2018-07-10T01:20:08.911Z,21.32
2018-07-10T01:22:37.802Z,21.27
2018-07-10T01:25:07.339Z,21.23
2018-07-10T01:27:36.772Z,21.13
2018-07-10T01:30:05.475Z,21.07
2018-07-10T01:32:34.211Z,21.06
2018-07-10T01:35:02.963Z,21.07
2018-07-10T01:37:32.179Z,21.05
2018-07-10T01:40:02.102Z,20.96
2018-07-10T01:42:31.504Z,21.00
2018-07-10T01:45:00.488Z,20.90
2018-07-10T01:47:29.154Z,20.88
2018-07-10T01:49:58.384Z,20.83
2018-07-10T01:52:26.962Z,20.73
2018-07-10T01:54:55.659Z,20.69
2018-07-10T01:57:25.672Z,20.67
2018-07-10T01:59:54.820Z,20.65
2018-07-10T02:02:24.432Z,20.55
2018-07-10T02:04:54.519Z,20.56
2018-07-10T02:07:23.411Z,20.53
2018-07-10T02:09:52.072Z,20.39
2018-07-10T02:12:20.773Z,20.45
2018-07-10T02:14:49.390Z,20.39
2018-07-10T02:17:18.187Z,20.35
2018-07-10T02:19:47.095Z,20.43
2018-07-10T02:22:15.876Z,20.41
2018-07-10T02:24:44.839Z,20.39
2018-07-10T02:27:14.864Z,20.40
2018-07-10T02:29:44.059Z,20.41
2018-07-10T02:32:12.800Z,20.39
2018-07-10T02:34:41.574Z,20.39
2018-07-10T02:37:10.275Z,20.43
2018-07-10T02:39:38.909Z,20.44
2018-07-10T02:42:08.012Z,20.43
2018-07-10T02:44:36.695Z,20.40
2018-07-10T02:47:05.527Z,20.41
2018-07-10T02:49:34.456Z,20.40
2018-07-10T02:52:06.582Z,20.42
2018-07-10T02:54:38.882Z,20.39
2018-07-10T02:57:09.443Z,20.32
2018-07-10T02:59:42.180Z,20.35
2018-07-10T03:02:17.948Z,20.27
2018-07-10T03:04:47.003Z,20.21
2018-07-10T03:07:17.824Z,20.29
2018-07-10T03:09:47.856Z,20.26
2018-07-10T03:12:17.823Z,20.17
2018-07-10T03:14:46.728Z,20.25
2018-07-10T03:17:20.272Z,20.23
2018-07-10T03:19:49.449Z,20.19
2018-07-10T03:22:19.152Z,20.17
2018-07-10T03:24:48.611Z,20.17
2018-07-10T03:27:17.316Z,20.11
2018-07-10T03:29:46.179Z,20.14
2018-07-10T03:32:14.938Z,20.11
2018-07-10T03:34:44.768Z,20.15
2018-07-10T03:37:13.521Z,20.21
2018-07-10T03:39:42.943Z,20.16
2018-07-10T03:42:13.148Z,20.24
2018-07-10T03:44:44.186Z,20.22
2018-07-10T03:47:15.519Z,20.23
2018-07-10T03:49:45.885Z,20.34
2018-07-10T03:52:24.373Z,20.19
2018-07-10T03:54:53.815Z,20.34
2018-07-10T03:57:23.448Z,20.34
2018-07-10T03:59:57.592Z,20.41
2018-07-10T04:02:26.730Z,20.41
2018-07-10T04:04:55.870Z,20.47
2018-07-10T04:07:25.343Z,20.54
2018-07-10T04:09:56.136Z,20.48
2018-07-10T04:12:30.104Z,20.53
2018-07-10T04:14:58.884Z,20.56
2018-07-10T04:17:32.364Z,20.46
2018-07-10T04:20:01.540Z,20.54
2018-07-10T04:22:30.461Z,20.73
2018-07-10T04:25:01.307Z,20.80
2018-07-10T04:27:36.469Z,20.67
2018-07-10T04:30:13.758Z,20.75
2018-07-10T04:32:43.076Z,20.81
2018-07-10T04:35:15.536Z,20.86
2018-07-10T04:37:51.499Z,20.85
2018-07-10T04:40:21.135Z,21.00
2018-07-10T04:42:58.303Z,21.09
2018-07-10T04:45:48.265Z,21.06
2018-07-10T04:48:39.743Z,21.03
2018-07-10T04:51:35.895Z,21.16
2018-07-10T04:54:40.783Z,21.10
2018-07-10T04:57:14.672Z,21.17
2018-07-10T04:59:43.368Z,21.14
2018-07-10T05:02:12.847Z,21.24
2018-07-10T05:04:41.592Z,21.32
2018-07-10T05:07:11.788Z,21.22
2018-07-10T05:09:42.325Z,21.36
2018-07-10T05:12:11.013Z,21.49
2018-07-10T05:14:43.588Z,21.45
2018-07-10T05:17:12.948Z,21.55
2018-07-10T05:19:41.847Z,21.52
2018-07-10T05:22:10.921Z,21.46
2018-07-10T05:24:39.832Z,21.36
2018-07-10T05:27:08.667Z,21.55
2018-07-10T05:29:37.495Z,21.47
2018-07-10T05:32:06.165Z,21.52
2018-07-10T05:34:37.615Z,21.60
2018-07-10T05:37:06.508Z,21.58
2018-07-10T05:39:36.484Z,21.48
2018-07-10T05:42:05.164Z,21.41
2018-07-10T05:44:34.344Z,21.55
2018-07-10T05:47:03.920Z,21.68
2018-07-10T05:49:38.258Z,21.76
2018-07-10T05:52:07.566Z,21.88
2018-07-10T05:54:38.174Z,21.99
2018-07-10T05:57:07.732Z,21.99
2018-07-10T05:59:36.651Z,21.98
2018-07-10T06:02:05.316Z,22.36
2018-07-10T06:04:34.141Z,22.37
2018-07-10T06:07:03.879Z,22.49
2018-07-10T06:09:32.447Z,22.47
2018-07-10T06:12:01.292Z,22.43
2018-07-10T06:14:29.935Z,22.38
2018-07-10T06:16:58.595Z,22.42
2018-07-10T06:19:27.433Z,22.35
2018-07-10T06:21:56.203Z,22.43
2018-07-10T06:24:27.091Z,22.40
2018-07-10T06:27:02.083Z,22.34
2018-07-10T06:30:05.128Z,22.46
2018-07-10T06:32:43.509Z,22.52
2018-07-10T06:35:12.495Z,22.45
2018-07-10T06:37:43.003Z,22.45
2018-07-10T06:40:11.809Z,22.50
2018-07-10T06:42:53.430Z,22.39
2018-07-10T06:45:22.399Z,22.59
2018-07-10T06:50:22.351Z,22.61
2018-07-10T06:52:53.353Z,22.75
2018-07-10T06:55:22.248Z,22.76
2018-07-10T06:57:59.474Z,22.43
2018-07-10T07:00:28.729Z,22.32
2018-07-10T07:02:57.570Z,22.23
2018-07-10T07:05:26.352Z,22.15
2018-07-10T07:07:55.284Z,22.13
2018-07-10T07:10:25.118Z,22.17
2018-07-10T07:12:53.775Z,22.13
2018-07-10T07:15:22.500Z,22.18
2018-07-10T07:17:53.006Z,21.94
2018-07-10T07:20:23.058Z,21.91
2018-07-10T07:22:52.419Z,21.98
2018-07-10T07:25:21.091Z,21.73
2018-07-10T07:27:50.689Z,21.86
2018-07-10T07:30:19.495Z,21.84
2018-07-10T07:32:49.011Z,22.19
2018-07-10T07:35:18.232Z,22.39
2018-07-10T07:37:47.340Z,22.36
2018-07-10T07:40:15.971Z,22.70
2018-07-10T07:42:44.939Z,23.04
2018-07-10T07:45:13.707Z,23.22
2018-07-10T07:47:42.694Z,23.23
2018-07-10T07:50:11.584Z,23.23
2018-07-10T07:52:40.244Z,23.72
2018-07-10T07:55:08.912Z,23.74
2018-07-10T07:57:37.940Z,24.24
2018-07-10T08:00:06.616Z,24.42
2018-07-10T08:02:35.272Z,24.65
2018-07-10T08:05:03.989Z,24.69
2018-07-10T08:07:32.648Z,24.94
2018-07-10T08:10:01.840Z,25.11
2018-07-10T08:12:31.916Z,25.25
2018-07-10T08:15:02.808Z,25.48
2018-07-10T08:17:33.619Z,24.81
2018-07-10T08:20:02.444Z,25.36
2018-07-10T08:22:31.276Z,25.80
2018-07-10T08:25:00.083Z,26.13
2018-07-10T08:27:29.231Z,26.45
2018-07-10T08:29:58.520Z,26.80
2018-07-10T08:32:28.680Z,27.68
2018-07-10T08:34:57.547Z,28.18
2018-07-10T08:37:26.303Z,28.02
2018-07-10T08:39:55.067Z,28.23
2018-07-10T08:42:24.043Z,28.58
2018-07-10T08:44:52.682Z,28.78
2018-07-10T08:47:21.380Z,28.91
2018-07-10T08:49:50.179Z,28.53
2018-07-10T08:52:20.511Z,27.71
2018-07-10T08:54:50.113Z,27.15
2018-07-10T08:57:18.961Z,26.54
2018-07-10T08:59:48.441Z,26.38
2018-07-10T09:02:17.583Z,26.74
2018-07-10T09:04:46.360Z,27.37
2018-07-10T09:07:15.036Z,26.76
2018-07-10T09:09:44.180Z,26.06
2018-07-10T09:12:12.998Z,25.03
2018-07-10T09:14:41.812Z,24.69
2018-07-10T09:17:10.715Z,24.01
2018-07-10T09:19:39.963Z,23.75
2018-07-10T09:22:12.238Z,23.12
2018-07-10T09:24:47.723Z,23.17
2018-07-10T09:27:18.991Z,22.90
2018-07-10T09:29:48.698Z,23.09
2018-07-10T09:32:24.773Z,22.76
2018-07-10T09:34:54.543Z,22.85
2018-07-10T09:37:28.507Z,23.26
2018-07-10T09:40:02.623Z,23.80
2018-07-10T09:42:32.715Z,24.29
2018-07-10T09:45:03.348Z,25.47
2018-07-10T09:47:32.236Z,27.99
2018-07-10T09:50:01.542Z,28.57
2018-07-10T09:52:30.272Z,29.05
2018-07-10T09:54:59.069Z,28.17
2018-07-10T09:57:27.661Z,27.39
2018-07-10T09:59:56.343Z,26.03
2018-07-10T10:02:31.333Z,25.62
2018-07-10T10:05:02.324Z,24.94
2018-07-10T10:07:34.976Z,24.50
2018-07-10T10:10:04.719Z,23.98
2018-07-10T10:12:33.917Z,24.03
2018-07-10T10:15:03.028Z,23.55
2018-07-10T10:17:32.196Z,23.52
2018-07-10T10:20:01.109Z,23.48
2018-07-10T10:22:32.687Z,23.77
2018-07-10T10:25:03.691Z,24.21
2018-07-10T10:27:32.609Z,24.49
2018-07-10T10:30:02.013Z,24.64
2018-07-10T10:32:31.112Z,24.53
2018-07-10T10:35:00.107Z,24.20
2018-07-10T10:37:28.964Z,24.24
2018-07-10T10:39:58.352Z,23.48
2018-07-10T10:42:27.968Z,23.45
2018-07-10T10:44:59.988Z,23.37
2018-07-10T10:47:29.067Z,22.99
2018-07-10T10:49:59.467Z,22.88
2018-07-10T10:52:28.934Z,22.83
2018-07-10T10:54:57.740Z,22.79
2018-07-10T10:57:27.839Z,22.42
2018-07-10T10:59:56.983Z,21.93
2018-07-10T11:02:26.080Z,21.78
2018-07-10T11:04:54.985Z,21.73
2018-07-10T11:07:23.722Z,21.36
2018-07-10T11:09:52.387Z,21.51
2018-07-10T11:12:21.575Z,21.55
2018-07-10T11:14:50.206Z,21.49
2018-07-10T11:17:28.887Z,21.64
2018-07-10T11:20:04.988Z,21.65
2018-07-10T11:22:38.360Z,22.10
2018-07-10T11:25:08.416Z,22.57
2018-07-10T11:28:04.563Z,23.07
2018-07-10T11:30:33.710Z,23.39
2018-07-10T11:33:04.188Z,24.25
2018-07-10T11:35:33.866Z,24.98
2018-07-10T11:38:05.530Z,25.80
2018-07-10T11:40:35.020Z,27.47
2018-07-10T11:43:05.536Z,27.97
2018-07-10T11:45:34.324Z,30.41
2018-07-10T11:48:03.195Z,32.34
2018-07-10T11:50:32.347Z,32.44
2018-07-10T11:53:01.074Z,31.55
2018-07-10T11:55:29.907Z,29.75
2018-07-10T11:57:58.931Z,28.32
2018-07-10T12:00:27.704Z,27.09
2018-07-10T12:02:56.386Z,26.84
2018-07-10T12:05:25.398Z,28.92
2018-07-10T12:07:58.385Z,29.33
2018-07-10T12:10:30.439Z,30.35
2018-07-10T12:12:59.208Z,29.69
2018-07-10T12:15:27.937Z,28.31
2018-07-10T12:17:58.083Z,27.23
2018-07-10T12:20:35.607Z,26.77
2018-07-10T12:23:07.910Z,26.53
2018-07-10T12:25:40.245Z,26.55
2018-07-10T12:28:10.204Z,26.77
2018-07-10T12:30:39.182Z,29.43
2018-07-10T12:33:08.455Z,32.01
2018-07-10T12:35:37.579Z,32.75
2018-07-10T12:38:06.314Z,33.79
2018-07-10T12:40:35.527Z,35.14
2018-07-10T12:43:04.215Z,35.04
2018-07-10T12:45:32.924Z,34.24
2018-07-10T12:48:01.945Z,31.98
2018-07-10T12:50:30.795Z,31.25
2018-07-10T12:52:59.468Z,31.27
2018-07-10T12:55:28.204Z,30.87
2018-07-10T12:57:57.784Z,31.35
2018-07-10T13:00:28.727Z,32.96
2018-07-10T13:02:58.439Z,33.87
2018-07-10T13:05:35.080Z,35.41
2018-07-10T13:08:03.799Z,36.25
2018-07-10T13:10:32.459Z,35.65
2018-07-10T13:13:01.097Z,35.32
2018-07-10T13:15:29.852Z,36.97
2018-07-10T13:17:59.376Z,34.87
2018-07-10T13:20:28.027Z,34.51
2018-07-10T13:22:56.845Z,33.97
2018-07-10T13:25:25.403Z,34.96
2018-07-10T13:27:54.067Z,34.98
2018-07-10T13:30:23.554Z,33.09
2018-07-10T13:32:52.416Z,34.32
2018-07-10T13:35:21.063Z,34.80
2018-07-10T13:37:49.871Z,34.48
2018-07-10T13:40:18.530Z,35.53
2018-07-10T13:42:52.875Z,35.11
2018-07-10T13:45:22.855Z,35.34
2018-07-10T13:47:51.447Z,35.38
2018-07-10T13:50:22.295Z,36.57
2018-07-10T13:52:51.386Z,35.84
2018-07-10T13:55:20.064Z,35.64
2018-07-10T13:57:54.436Z,35.95
2018-07-10T14:00:23.376Z,34.92
2018-07-10T14:02:54.790Z,34.71
2018-07-10T14:05:24.589Z,34.42
2018-07-10T14:07:53.531Z,33.36
2018-07-10T14:10:22.825Z,31.78
2018-07-10T14:12:51.873Z,31.70
2018-07-10T14:15:20.535Z,31.11
2018-07-10T14:17:49.552Z,30.56
2018-07-10T14:20:18.427Z,31.09
2018-07-10T14:22:47.204Z,30.82
2018-07-10T14:25:15.943Z,30.59
2018-07-10T14:27:45.115Z,29.73
2018-07-10T14:30:14.013Z,28.62
2018-07-10T14:32:42.768Z,27.92
2018-07-10T14:35:11.993Z,28.94
2018-07-10T14:37:40.625Z,31.03
2018-07-10T14:40:09.322Z,32.74
2018-07-10T14:42:38.431Z,33.32
2018-07-10T14:45:07.728Z,33.74
2018-07-10T14:47:37.888Z,33.13
2018-07-10T14:50:07.509Z,32.27
2018-07-10T14:52:36.581Z,30.39
2018-07-10T14:55:05.435Z,30.27
2018-07-10T14:57:34.200Z,30.59
2018-07-10T15:00:02.926Z,30.79
2018-07-10T15:02:31.769Z,31.29
2018-07-10T15:05:00.565Z,31.00
2018-07-10T15:07:29.147Z,31.25
2018-07-10T15:09:58.071Z,30.75
2018-07-10T15:12:27.156Z,30.40
2018-07-10T15:14:56.187Z,29.34
2018-07-10T15:17:30.107Z,28.91
2018-07-10T15:19:58.712Z,28.32
2018-07-10T15:22:27.420Z,28.02
2018-07-10T15:24:56.335Z,27.07
2018-07-10T15:27:25.038Z,26.95
2018-07-10T15:29:55.172Z,26.71
2018-07-10T15:32:24.974Z,26.65
2018-07-10T15:34:53.811Z,26.31
2018-07-10T15:37:22.705Z,26.31
2018-07-10T15:39:51.540Z,26.34
2018-07-10T15:42:20.588Z,26.68
2018-07-10T15:44:49.262Z,26.08
2018-07-10T15:47:18.216Z,26.11
2018-07-10T15:49:46.995Z,26.12
2018-07-10T15:52:15.700Z,26.12
2018-07-10T15:54:44.292Z,25.87
2018-07-10T15:57:12.863Z,25.88
2018-07-10T15:59:42.289Z,25.45
2018-07-10T16:02:11.296Z,25.08
2018-07-10T16:04:39.891Z,25.13
2018-07-10T16:07:08.581Z,25.33
2018-07-10T16:09:37.892Z,25.23
2018-07-10T16:12:07.411Z,25.23
2018-07-10T16:14:39.344Z,25.32
2018-07-10T16:17:19.018Z,25.05
2018-07-10T16:19:49.691Z,25.30
2018-07-10T16:22:21.299Z,24.95
2018-07-10T16:24:53.047Z,25.10
2018-07-10T16:27:26.903Z,24.87
2018-07-10T16:29:56.260Z,25.04
2018-07-10T16:32:25.859Z,24.97
2018-07-10T16:34:54.528Z,25.13
2018-07-10T16:37:23.483Z,25.20
2018-07-10T16:39:52.154Z,25.16
2018-07-10T16:42:26.384Z,24.92
2018-07-10T16:44:55.119Z,25.00
2018-07-10T16:47:31.115Z,24.94
2018-07-10T16:50:05.552Z,24.87
2018-07-10T16:52:57.884Z,24.82
2018-07-10T16:55:27.976Z,24.77
2018-07-10T16:57:56.868Z,25.01
2018-07-10T17:00:26.367Z,24.95
2018-07-10T17:02:55.983Z,24.84
2018-07-10T17:05:25.611Z,24.72
2018-07-10T17:07:54.549Z,24.91
2018-07-10T17:10:23.551Z,24.58
2018-07-10T17:12:52.228Z,24.63
2018-07-10T17:15:20.893Z,24.64
2018-07-10T17:17:49.775Z,24.81
2018-07-10T17:20:18.382Z,24.54
2018-07-10T17:22:46.962Z,24.34
2018-07-10T17:25:16.307Z,24.11
2018-07-10T17:27:48.792Z,23.98
2018-07-10T17:30:17.789Z,23.80
2018-07-10T17:32:46.625Z,23.44
2018-07-10T17:35:15.285Z,23.34
2018-07-10T17:37:47.068Z,23.02
2018-07-10T17:40:16.527Z,22.85
2018-07-10T17:42:46.391Z,22.79
2018-07-10T17:45:23.724Z,22.76
2018-07-10T17:47:52.404Z,22.86
2018-07-10T17:50:21.602Z,22.82
2018-07-10T17:52:50.220Z,22.74
2018-07-10T17:55:19.468Z,22.82
2018-07-10T17:57:48.761Z,22.87
2018-07-10T18:00:17.585Z,22.60
2018-07-10T18:02:46.460Z,22.60
2018-07-10T18:05:15.159Z,22.50
2018-07-10T18:07:43.844Z,22.47
2018-07-10T18:10:13.786Z,22.50
2018-07-10T18:12:43.089Z,22.39
2018-07-10T18:15:11.792Z,22.39
2018-07-10T18:17:40.592Z,22.15
2018-07-10T18:20:09.484Z,22.15
2018-07-10T18:22:38.282Z,21.96
2018-07-10T18:25:07.440Z,21.98
2018-07-10T18:27:36.091Z,21.88
2018-07-10T18:30:04.879Z,21.80
2018-07-10T18:32:33.664Z,21.76
2018-07-10T18:35:02.256Z,21.63
2018-07-10T18:37:30.897Z,21.62
2018-07-10T18:39:59.819Z,21.57
2018-07-10T18:42:28.507Z,21.48
2018-07-10T18:44:57.475Z,21.39
2018-07-10T18:47:26.232Z,21.37
2018-07-10T18:49:56.465Z,21.33
2018-07-10T18:52:27.936Z,21.31
2018-07-10T18:54:58.805Z,21.29
2018-07-10T18:57:34.104Z,21.32
2018-07-10T19:00:06.401Z,21.25
2018-07-10T19:03:13.404Z,21.23
2018-07-10T19:06:06.651Z,21.22
2018-07-10T19:08:35.746Z,21.24
2018-07-10T19:11:04.658Z,21.21
2018-07-10T19:13:33.382Z,21.13
2018-07-10T19:16:02.124Z,20.91
2018-07-10T19:18:30.703Z,20.93
2018-07-10T19:21:16.179Z,20.89
2018-07-10T19:23:47.879Z,20.73
2018-07-10T19:26:18.068Z,20.62
2018-07-10T19:28:47.443Z,20.49
2018-07-10T19:31:20.021Z,20.42
2018-07-10T19:33:53.760Z,20.31
2018-07-10T19:36:22.475Z,20.25
2018-07-10T19:38:51.168Z,20.26
2018-07-10T19:41:20.776Z,20.16
2018-07-10T19:43:50.195Z,20.07
2018-07-10T19:46:19.007Z,19.92
2018-07-10T19:48:52.011Z,19.92
2018-07-10T19:51:25.045Z,19.91
2018-07-10T19:53:57.859Z,19.82
2018-07-10T19:56:26.819Z,19.73
2018-07-10T19:58:55.782Z,19.74
2018-07-10T20:01:43.800Z,19.67
2018-07-10T20:04:16.259Z,19.57
2018-07-10T20:07:10.592Z,19.47
2018-07-10T20:09:48.707Z,19.40
2018-07-10T20:12:18.992Z,19.36
2018-07-10T20:15:00.792Z,19.35
2018-07-10T20:17:32.369Z,19.25
2018-07-10T20:20:11.618Z,19.14
2018-07-10T20:23:18.720Z,19.12
2018-07-10T20:26:00.827Z,18.98
2018-07-10T20:28:47.244Z,18.93
2018-07-10T20:32:28.812Z,18.69
2018-07-10T20:35:10.612Z,18.31
2018-07-10T20:37:39.507Z,18.22
2018-07-10T20:40:08.345Z,18.22
2018-07-10T20:42:41.613Z,18.25
2018-07-10T20:45:10.676Z,18.20
2018-07-10T20:47:49.209Z,18.10
2018-07-10T20:50:22.956Z,17.94
2018-07-10T20:52:56.423Z,17.98
2018-07-10T20:55:30.688Z,18.01
2018-07-10T20:58:02.520Z,17.95
2018-07-10T21:00:40.005Z,17.91
2018-07-10T21:03:16.828Z,17.86
2018-07-10T21:05:49.816Z,17.87
2018-07-10T21:08:25.620Z,17.83
2018-07-10T21:10:58.251Z,17.81
2018-07-10T21:13:45.009Z,17.72
2018-07-10T21:17:18.368Z,17.58
2018-07-10T21:19:59.151Z,17.14
2018-07-10T21:22:41.776Z,17.05
2018-07-10T21:25:23.264Z,16.99
2018-07-10T21:28:02.669Z,16.87
2018-07-10T21:30:37.113Z,16.68
2018-07-10T21:33:26.580Z,16.77
2018-07-10T21:36:01.461Z,16.65
2018-07-10T21:38:37.588Z,16.57
2018-07-10T21:41:18.295Z,16.67
2018-07-10T21:44:01.807Z,16.56
2018-07-10T21:46:39.393Z,16.55
2018-07-10T21:50:01.748Z,16.51
2018-07-10T21:52:30.650Z,16.39
2018-07-10T21:54:59.695Z,16.37
2018-07-10T21:57:33.507Z,16.27
2018-07-10T22:00:03.356Z,16.19
2018-07-10T22:02:35.707Z,16.08
2018-07-10T22:05:04.430Z,16.05
2018-07-10T22:07:33.250Z,16.04
2018-07-10T22:10:04.824Z,15.93
2018-07-10T22:12:37.497Z,15.93
2018-07-10T22:15:06.244Z,15.92
2018-07-10T22:17:35.468Z,15.95
2018-07-10T22:20:04.284Z,15.86
2018-07-10T22:22:33.983Z,15.75
2018-07-10T22:25:05.556Z,15.83
2018-07-10T22:27:34.323Z,15.77
2018-07-10T22:30:08.098Z,15.82
2018-07-10T22:32:44.567Z,15.72
2018-07-10T22:35:14.183Z,15.56
2018-07-10T22:37:43.168Z,15.56
2018-07-10T22:40:11.879Z,15.63
2018-07-10T22:42:40.524Z,15.55
2018-07-10T22:45:09.230Z,15.50
2018-07-10T22:47:39.328Z,15.40
2018-07-10T22:50:17.275Z,15.57
2018-07-10T22:52:50.887Z,15.52
2018-07-10T22:55:21.798Z,15.48
2018-07-10T22:57:52.449Z,15.48
2018-07-10T23:00:27.211Z,15.49
2018-07-10T23:02:55.867Z,15.53
2018-07-10T23:05:24.716Z,15.50
2018-07-10T23:07:53.543Z,15.45
2018-07-10T23:10:22.531Z,15.36
2018-07-10T23:12:51.507Z,15.34
2018-07-10T23:15:20.287Z,15.27
2018-07-10T23:17:49.475Z,15.27
2018-07-10T23:20:18.184Z,15.12
2018-07-10T23:22:54.579Z,15.22
2018-07-10T23:25:25.175Z,15.09
2018-07-10T23:28:06.791Z,15.22
2018-07-10T23:30:38.143Z,15.29
2018-07-10T23:33:12.171Z,15.17
2018-07-10T23:35:42.235Z,15.19
2018-07-10T23:38:18.763Z,15.15
2018-07-10T23:40:47.393Z,15.37
2018-07-10T23:43:16.115Z,15.38
2018-07-10T23:45:45.392Z,15.30
2018-07-10T23:48:14.088Z,15.19
2018-07-10T23:50:42.907Z,15.22
2018-07-10T23:53:21.779Z,15.19
2018-07-10T23:55:50.475Z,15.15
2018-07-10T23:58:19.023Z,15.18
